Poplar Bluff, MO

2:09 PM CDT on July 26, 2016 (GMT -0500)
Berry Hills Estates | | Change Station
Active Advisory: Special Statement

Elev 413 ft 36.74 °N, 90.45 °W | Updated 2 seconds ago

Partly Cloudy
Partly Cloudy
88.6 °F
Feels Like 104 °F
N
1.8
Wind Variable Wind from NNW
Gusts 1.8 mph

Today
High -- | Low -- °F
--% Chance of Precip.
Yesterday
High -- | Low -- °F
Precip. -- in
Pressure 29.94 in
Visibility 10.0 miles
Clouds Few 3400 ft
Heat Index 104 °F
Dew Point 79 °F
Humidity 73%
Rainfall 0.00 in
Snow Depth Not available.
6:03 AM 8:13 PM
Waning Gibbous, 52% visible
METAR KPOF 261853Z AUTO VRB06KT 10SM FEW034 33/24 A2995 RMK AO2 SLP136 T03280244 TSNO
Pressure 29.94 in
Visibility 10.0 miles
Clouds Few 3400 ft
Heat Index 104 °F
Dew Point 79 °F
Humidity 73%
Rainfall 0.00 in
Snow Depth Not available.
6:03 AM 8:13 PM
Waning Gibbous, 52% visible
METAR KPOF 261853Z AUTO VRB06KT 10SM FEW034 33/24 A2995 RMK AO2 SLP136 T03280244 TSNO

10-Day Weather Forecast

Almanac

Astronomy

Jul. 26, 2016 Rise Set
Actual Time
Civil Twilight
Nautical Twilight
Astronomical Twilight
Moon
Length of Visible Light
Length of Day
Tomorrow will be .
, % of the Moon is Illuminated

Today's Extremes

State Highs State Lows

Community

WunderPhotos

Upload Photos

1,927,662 photos uploaded!

WunderBlog® & News

Nearby

Air Quality

  Air Quality AQ Index Pollutant
Not available.

Snow Depth

Station Depth Elevation

Earthquake Activity

City Distance Mag. Time & Date
Minimum magnitude displayed is 2.5.

Coastal Water Temperatures

Place Temperature

Stations

Nearby Weather Stations

Station Location Temp. Windchill Dew Point Humidity Wind Precip. Elev Updated Type
                   

Watches & Warnings

Special Statement
Issued: 10:47 AM CDT Jul. 26, 2016 – National Weather Service

... Heat and humidity will produce heat indices above 100 today...

High temperatures in the lower 90s combined with dewpoints in the
middle 70s will produce heat indices of 100 to 105 this afternoon.
Isolated showers and thunderstorms may provide temporary relief
for some communities this afternoon.


1047 am CDT Tue Jul 26 2016

... Heat and humidity will produce heat indices above 100 today...

High temperatures in the lower 90s combined with dewpoints in the
middle 70s will produce heat indices of 100 to 105 this afternoon.
Isolated showers and thunderstorms may provide temporary relief
for some communities this afternoon.